Terminal Aerodrome Forecast
Issued by NWS Detroit/Pontiac, MI

Home | Current Version | Previous Version | Text Only | Print | Product List | Glossary On
Versions: 1 2 3 4 5 6 7 8 9 10 11 12 13 14 15 16 17 18 19 20 21 22 23 24 25 26 27 28 29 30
857
FTUS43 KDTX 290047 AAA
TAFDTW
TAF AMD
KDTW 290047Z 2901/3006 19005KT P6SM SCT035 SCT060 BKN080
      TEMPO 2901/2902 3SM TSRA BKN028CB OVC050
     FM290200 22006KT P6SM SCT025 BKN080
     FM290500 24008KT P6SM SKC
     FM291600 22015G24KT P6SM BKN060
     FM300000 24010KT P6SM SCT070=

USA.gov is the U.S. government's official web portal to all federal, state and local government web resources and services.